createdAt,value
2018-05-03T00:00:43.857Z,10.60
2018-05-03T00:03:11.526Z,10.60
2018-05-03T00:05:39.059Z,10.60
2018-05-03T00:08:06.663Z,10.60
2018-05-03T00:10:34.252Z,10.50
2018-05-03T00:13:01.908Z,10.50
2018-05-03T00:15:29.459Z,10.40
2018-05-03T00:17:57.028Z,10.40
2018-05-03T00:20:24.667Z,10.40
2018-05-03T00:22:52.631Z,10.40
2018-05-03T00:25:20.216Z,10.40
2018-05-03T00:27:48.155Z,10.40
2018-05-03T00:30:15.763Z,10.40
2018-05-03T00:32:43.292Z,10.40
2018-05-03T00:35:10.902Z,10.30
2018-05-03T00:37:38.501Z,10.30
2018-05-03T00:42:40.409Z,10.30
2018-05-03T00:45:08.003Z,10.30
2018-05-03T00:47:35.535Z,10.30
2018-05-03T00:50:03.084Z,10.30
2018-05-03T00:52:30.624Z,10.30
2018-05-03T00:54:58.187Z,10.30
2018-05-03T00:57:25.743Z,10.30
2018-05-03T00:59:53.283Z,10.30
2018-05-03T01:02:20.820Z,10.30
2018-05-03T01:04:48.428Z,10.30
2018-05-03T01:07:16.420Z,10.30
2018-05-03T01:09:44.475Z,10.30
2018-05-03T01:12:12.036Z,10.30
2018-05-03T01:14:39.831Z,10.30
2018-05-03T01:17:07.429Z,10.30
2018-05-03T01:19:35.002Z,10.20
2018-05-03T01:22:02.962Z,10.20
2018-05-03T01:24:30.533Z,10.20
2018-05-03T01:26:58.108Z,10.20
2018-05-03T01:29:25.703Z,10.10
2018-05-03T01:31:53.296Z,10.10
2018-05-03T01:34:20.863Z,10.10
2018-05-03T01:36:48.802Z,10.00
2018-05-03T01:39:16.379Z,10.00
2018-05-03T01:41:43.959Z,10.10
2018-05-03T01:44:11.892Z,10.10
2018-05-03T01:46:39.460Z,10.10
2018-05-03T01:49:07.810Z,10.10
2018-05-03T01:51:35.356Z,10.10
2018-05-03T01:54:02.899Z,10.10
2018-05-03T01:56:30.432Z,10.20
2018-05-03T01:58:58.416Z,10.20
2018-05-03T02:01:26.433Z,10.20
2018-05-03T02:03:53.999Z,10.20
2018-05-03T02:06:21.556Z,10.20
2018-05-03T02:08:49.111Z,10.20
2018-05-03T02:11:16.681Z,10.20
2018-05-03T02:13:44.225Z,10.20
2018-05-03T02:16:11.781Z,10.30
2018-05-03T02:18:39.330Z,10.30
2018-05-03T02:21:07.810Z,10.30
2018-05-03T02:23:35.377Z,10.30
2018-05-03T02:26:02.915Z,10.30
2018-05-03T02:28:30.501Z,10.30
2018-05-03T02:30:58.057Z,10.30
2018-05-03T02:33:25.599Z,10.20
2018-05-03T02:35:53.144Z,10.10
2018-05-03T02:38:21.060Z,10.10
2018-05-03T02:40:48.642Z,10.10
2018-05-03T02:43:16.187Z,10.20
2018-05-03T02:45:43.771Z,10.20
2018-05-03T02:48:11.342Z,10.20
2018-05-03T02:50:39.312Z,10.20
2018-05-03T02:53:07.239Z,10.30
2018-05-03T02:55:34.763Z,10.20
2018-05-03T02:58:19.195Z,10.30
2018-05-03T03:01:05.534Z,10.30
2018-05-03T03:03:50.750Z,10.30
2018-05-03T03:06:35.849Z,10.30
2018-05-03T03:12:43.720Z,10.30
2018-05-03T03:15:28.811Z,10.30
2018-05-03T03:18:12.157Z,10.30
2018-05-03T03:20:57.784Z,10.30
2018-05-03T03:23:42.704Z,10.30
2018-05-03T03:29:52.781Z,10.30
2018-05-03T03:32:32.526Z,10.30
2018-05-03T03:35:06.760Z,10.30
2018-05-03T03:37:46.281Z,10.30
2018-05-03T03:40:25.555Z,10.30
2018-05-03T03:45:50.795Z,10.30
2018-05-03T03:48:18.384Z,10.30
2018-05-03T03:50:45.931Z,10.30
2018-05-03T03:53:13.594Z,10.30
2018-05-03T03:55:41.051Z,10.30
2018-05-03T03:58:08.620Z,10.30
2018-05-03T04:00:36.234Z,10.30
2018-05-03T04:03:03.785Z,10.40
2018-05-03T04:05:31.422Z,10.30
2018-05-03T04:07:59.346Z,10.30
2018-05-03T04:10:27.142Z,10.30
2018-05-03T04:12:54.738Z,10.40
2018-05-03T04:15:23.248Z,10.40
2018-05-03T04:18:03.014Z,10.40
2018-05-03T04:20:46.419Z,10.40
2018-05-03T04:26:30.141Z,10.40
2018-05-03T04:29:02.891Z,10.40
2018-05-03T04:31:36.331Z,10.40
2018-05-03T04:34:09.618Z,10.40
2018-05-03T04:36:42.344Z,10.50
2018-05-03T04:39:11.512Z,10.50
2018-05-03T04:41:40.236Z,10.50
2018-05-03T04:44:07.928Z,10.50
2018-05-03T04:46:36.497Z,10.50
2018-05-03T04:49:05.404Z,10.50
2018-05-03T04:51:36.022Z,10.50
2018-05-03T04:54:04.532Z,10.60
2018-05-03T04:56:37.906Z,10.70
2018-05-03T04:59:08.538Z,10.70
2018-05-03T05:01:37.579Z,10.70
2018-05-03T05:04:09.534Z,10.80
2018-05-03T05:06:39.381Z,11.00
2018-05-03T05:09:09.875Z,11.00
2018-05-03T05:11:39.022Z,11.00
2018-05-03T05:14:17.996Z,11.10
2018-05-03T05:16:45.608Z,11.20
2018-05-03T05:19:13.229Z,11.30
2018-05-03T05:21:40.844Z,11.30
2018-05-03T05:24:08.443Z,11.40
2018-05-03T05:26:37.444Z,11.60
2018-05-03T05:29:05.028Z,11.60
2018-05-03T05:31:32.600Z,11.70
2018-05-03T05:34:00.173Z,11.70
2018-05-03T05:36:27.821Z,11.80
2018-05-03T05:38:55.454Z,11.90
2018-05-03T05:41:22.944Z,11.90
2018-05-03T05:43:50.558Z,12.00
2018-05-03T05:46:18.160Z,12.00
2018-05-03T05:48:45.696Z,12.10
2018-05-03T05:51:13.426Z,12.10
2018-05-03T05:53:40.947Z,12.10
2018-05-03T05:56:08.536Z,12.20
2018-05-03T05:58:36.497Z,12.30
2018-05-03T06:01:04.051Z,12.30
2018-05-03T06:03:31.613Z,12.40
2018-05-03T06:05:59.217Z,12.40
2018-05-03T06:08:27.707Z,12.40
2018-05-03T06:10:55.267Z,12.40
2018-05-03T06:13:22.815Z,12.40
2018-05-03T06:15:50.440Z,12.50
2018-05-03T06:18:17.963Z,12.60
2018-05-03T06:20:45.767Z,12.50
2018-05-03T06:23:13.348Z,12.40
2018-05-03T06:25:41.988Z,12.30
2018-05-03T06:28:10.167Z,12.30
2018-05-03T06:30:37.750Z,12.20
2018-05-03T06:33:05.339Z,12.00
2018-05-03T06:35:33.006Z,11.90
2018-05-03T06:38:00.548Z,11.80
2018-05-03T06:40:28.135Z,11.70
2018-05-03T06:42:55.724Z,11.70
2018-05-03T06:45:23.277Z,11.70
2018-05-03T06:47:51.768Z,11.70
2018-05-03T06:50:19.339Z,11.70
2018-05-03T06:52:46.900Z,11.90
2018-05-03T06:55:14.441Z,12.10
2018-05-03T06:57:43.460Z,12.30
2018-05-03T07:00:12.295Z,12.70
2018-05-03T07:02:40.498Z,12.70
2018-05-03T07:05:10.208Z,12.90
2018-05-03T07:07:37.816Z,13.20
2018-05-03T07:10:06.347Z,13.50
2018-05-03T07:12:33.995Z,13.80
2018-05-03T07:15:01.714Z,13.90
2018-05-03T07:17:29.708Z,14.20
2018-05-03T07:19:57.303Z,14.30
2018-05-03T07:22:24.915Z,14.30
2018-05-03T07:24:54.416Z,14.40
2018-05-03T07:27:22.356Z,14.50
2018-05-03T07:29:50.555Z,14.50
2018-05-03T07:32:19.052Z,14.50
2018-05-03T07:34:47.094Z,14.40
2018-05-03T07:37:14.904Z,14.40
2018-05-03T07:39:42.498Z,14.40
2018-05-03T07:42:10.139Z,14.30
2018-05-03T07:44:38.009Z,14.30
2018-05-03T07:47:05.631Z,14.40
2018-05-03T07:49:33.575Z,14.60
2018-05-03T07:52:01.136Z,14.60
2018-05-03T07:54:29.116Z,14.90
2018-05-03T07:56:57.059Z,15.00
2018-05-03T07:59:25.054Z,15.00
2018-05-03T08:01:52.800Z,15.00
2018-05-03T08:04:20.368Z,14.90
2018-05-03T08:06:47.949Z,14.90
2018-05-03T08:09:15.885Z,15.20
2018-05-03T08:11:43.437Z,15.20
2018-05-03T08:14:11.447Z,15.30
2018-05-03T08:16:39.477Z,15.20
2018-05-03T08:19:07.033Z,15.20
2018-05-03T08:21:34.547Z,15.30
2018-05-03T08:24:02.310Z,15.30
2018-05-03T08:26:30.413Z,15.40
2018-05-03T08:28:58.000Z,15.40
2018-05-03T08:31:25.733Z,15.60
2018-05-03T08:33:53.376Z,15.70
2018-05-03T08:36:21.119Z,15.60
2018-05-03T08:38:50.215Z,15.80
2018-05-03T08:41:18.823Z,15.80
2018-05-03T08:43:49.862Z,15.80
2018-05-03T08:46:25.036Z,15.90
2018-05-03T08:48:53.404Z,16.20
2018-05-03T08:51:21.157Z,16.20
2018-05-03T08:53:55.139Z,16.30
2018-05-03T08:56:29.854Z,16.30
2018-05-03T08:59:08.045Z,16.30
2018-05-03T09:01:36.505Z,16.30
2018-05-03T09:04:06.887Z,16.40
2018-05-03T09:06:36.345Z,16.50
2018-05-03T09:09:13.782Z,16.50
2018-05-03T09:11:41.865Z,16.40
2018-05-03T09:14:09.646Z,16.40
2018-05-03T09:16:37.412Z,16.40
2018-05-03T09:19:05.075Z,16.50
2018-05-03T09:21:32.733Z,16.80
2018-05-03T09:24:00.354Z,16.70
2018-05-03T09:26:28.307Z,16.60
2018-05-03T09:28:55.844Z,16.60
2018-05-03T09:31:23.452Z,16.50
2018-05-03T09:33:51.031Z,16.50
2018-05-03T09:36:18.574Z,16.50
2018-05-03T09:38:46.120Z,16.60
2018-05-03T09:41:14.079Z,16.60
2018-05-03T09:43:42.960Z,16.60
2018-05-03T09:46:10.522Z,16.60
2018-05-03T09:48:38.954Z,16.60
2018-05-03T09:51:06.519Z,16.70
2018-05-03T09:53:34.099Z,16.80
2018-05-03T09:56:01.748Z,17.00
2018-05-03T09:58:29.847Z,17.10
2018-05-03T10:00:57.483Z,17.20
2018-05-03T10:03:25.065Z,17.30
2018-05-03T10:05:52.740Z,17.40
2018-05-03T10:08:20.303Z,17.50
2018-05-03T10:10:48.267Z,18.00
2018-05-03T10:13:16.269Z,18.00
2018-05-03T10:15:43.779Z,18.00
2018-05-03T10:18:11.812Z,18.10
2018-05-03T10:20:39.384Z,18.10
2018-05-03T10:23:06.941Z,18.20
2018-05-03T10:25:34.531Z,18.40
2018-05-03T10:28:02.115Z,18.70
2018-05-03T10:30:29.687Z,19.00
2018-05-03T10:32:57.226Z,19.20
2018-05-03T10:35:24.791Z,19.60
2018-05-03T10:37:52.353Z,19.80
2018-05-03T10:40:23.166Z,19.70
2018-05-03T10:42:51.518Z,19.70
2018-05-03T10:45:19.683Z,19.80
2018-05-03T10:47:47.298Z,20.10
2018-05-03T10:50:14.861Z,20.40
2018-05-03T10:52:42.831Z,20.50
2018-05-03T10:55:10.860Z,20.70
2018-05-03T10:57:40.319Z,20.70
2018-05-03T11:00:08.292Z,21.40
2018-05-03T11:02:36.869Z,21.40
2018-05-03T11:05:11.338Z,21.60
2018-05-03T11:07:38.905Z,22.10
2018-05-03T11:10:08.165Z,22.50
2018-05-03T11:12:35.707Z,22.90
2018-05-03T11:15:03.749Z,23.30
2018-05-03T11:17:31.303Z,23.70
2018-05-03T11:19:59.233Z,23.90
2018-05-03T11:22:27.950Z,24.00
2018-05-03T11:24:55.595Z,24.00
2018-05-03T11:27:24.079Z,24.10
2018-05-03T11:29:51.786Z,24.50
2018-05-03T11:32:19.739Z,24.50
2018-05-03T11:34:47.335Z,24.50
2018-05-03T11:37:15.065Z,24.60
2018-05-03T11:39:43.794Z,24.40
2018-05-03T11:42:11.418Z,24.20
2018-05-03T11:44:39.106Z,24.10
2018-05-03T11:47:07.012Z,23.80
2018-05-03T11:49:34.587Z,24.20
2018-05-03T11:52:02.153Z,24.20
2018-05-03T11:54:29.736Z,23.40
2018-05-03T11:56:57.719Z,22.10
2018-05-03T11:59:25.799Z,21.60
2018-05-03T12:01:53.704Z,21.20
2018-05-03T12:04:21.945Z,21.20
2018-05-03T12:06:50.436Z,22.00
2018-05-03T12:09:17.988Z,24.20
2018-05-03T12:11:46.372Z,28.50
2018-05-03T12:14:13.844Z,28.50
2018-05-03T12:16:43.935Z,27.80
2018-05-03T12:19:11.516Z,28.30
2018-05-03T12:21:40.037Z,28.10
2018-05-03T12:24:07.666Z,27.20
2018-05-03T12:26:37.668Z,26.40
2018-05-03T12:29:05.707Z,29.20
2018-05-03T12:31:36.072Z,30.20
2018-05-03T12:34:03.662Z,30.20
2018-05-03T12:36:33.139Z,29.80
2018-05-03T12:39:00.758Z,28.50
2018-05-03T12:41:29.848Z,28.60
2018-05-03T12:43:57.419Z,29.20
2018-05-03T12:46:25.040Z,27.70
2018-05-03T12:48:52.612Z,25.90
2018-05-03T12:51:21.811Z,24.90
2018-05-03T12:53:49.372Z,25.20
2018-05-03T12:56:19.173Z,26.90
2018-05-03T12:58:46.725Z,27.90
2018-05-03T13:01:16.942Z,28.70
2018-05-03T13:03:44.501Z,28.60
2018-05-03T13:06:16.051Z,26.70
2018-05-03T13:08:43.667Z,26.30
2018-05-03T13:11:11.742Z,26.60
2018-05-03T13:13:39.835Z,27.30
2018-05-03T13:16:07.423Z,27.30
2018-05-03T13:18:34.976Z,28.30
2018-05-03T13:21:03.443Z,29.20
2018-05-03T13:23:30.987Z,28.00
2018-05-03T13:25:58.562Z,27.10
2018-05-03T13:28:26.119Z,26.40
2018-05-03T13:30:53.785Z,25.60
2018-05-03T13:33:21.396Z,24.20
2018-05-03T13:35:48.952Z,23.00
2018-05-03T13:38:16.505Z,22.70
2018-05-03T13:40:44.100Z,23.50
2018-05-03T13:43:12.744Z,23.00
2018-05-03T13:45:40.292Z,23.00
2018-05-03T13:48:07.841Z,23.20
2018-05-03T13:50:35.421Z,23.70
2018-05-03T13:53:03.037Z,24.50
2018-05-03T13:55:30.626Z,25.10
2018-05-03T13:57:58.591Z,26.10
2018-05-03T14:00:26.159Z,26.10
2018-05-03T14:02:53.716Z,25.00
2018-05-03T14:05:21.305Z,24.10
2018-05-03T14:07:49.300Z,25.60
2018-05-03T14:10:17.311Z,25.50
2018-05-03T14:12:44.857Z,25.50
2018-05-03T14:15:12.450Z,24.70
2018-05-03T14:17:40.022Z,24.20
2018-05-03T14:20:07.580Z,23.90
2018-05-03T14:22:35.149Z,23.50
2018-05-03T14:25:03.575Z,23.40
2018-05-03T14:27:31.146Z,23.20
2018-05-03T14:29:58.707Z,22.90
2018-05-03T14:32:26.269Z,22.80
2018-05-03T14:34:53.836Z,23.00
2018-05-03T14:37:21.417Z,23.60
2018-05-03T14:39:48.978Z,23.70
2018-05-03T14:42:16.549Z,23.60
2018-05-03T14:44:44.131Z,23.90
2018-05-03T14:47:12.621Z,23.80
2018-05-03T14:49:40.844Z,23.80
2018-05-03T14:52:09.202Z,22.90
2018-05-03T14:54:37.542Z,22.30
2018-05-03T14:57:06.308Z,23.00
2018-05-03T14:59:33.921Z,23.00
2018-05-03T15:02:01.465Z,23.70
2018-05-03T15:04:29.031Z,24.10
2018-05-03T15:06:56.583Z,25.00
2018-05-03T15:09:24.137Z,26.60
2018-05-03T15:11:51.862Z,27.30
2018-05-03T15:14:20.956Z,26.50
2018-05-03T15:16:48.518Z,25.70
2018-05-03T15:19:16.065Z,25.30
2018-05-03T15:21:43.648Z,25.00
2018-05-03T15:24:11.245Z,24.30
2018-05-03T15:26:38.770Z,23.90
2018-05-03T15:29:06.317Z,24.00
2018-05-03T15:31:34.699Z,24.50
2018-05-03T15:34:02.275Z,24.60
2018-05-03T15:36:31.159Z,24.30
2018-05-03T15:38:59.108Z,24.00
2018-05-03T15:41:26.680Z,24.00
2018-05-03T15:43:54.321Z,24.10
2018-05-03T15:46:21.955Z,23.80
2018-05-03T15:48:50.225Z,23.60
2018-05-03T15:51:18.582Z,24.20
2018-05-03T15:53:46.149Z,24.10
2018-05-03T15:56:13.728Z,23.70
2018-05-03T15:58:41.313Z,23.30
2018-05-03T16:01:08.881Z,23.10
2018-05-03T16:03:36.479Z,23.30
2018-05-03T16:06:04.424Z,22.60
2018-05-03T16:08:31.990Z,22.60
2018-05-03T16:10:59.988Z,22.10
2018-05-03T16:13:27.973Z,21.80
2018-05-03T16:15:56.188Z,21.50
2018-05-03T16:18:24.106Z,21.50
2018-05-03T16:20:51.646Z,21.60
2018-05-03T16:23:19.599Z,22.20
2018-05-03T16:25:47.174Z,22.20
2018-05-03T16:28:14.714Z,22.70
2018-05-03T16:30:42.269Z,23.10
2018-05-03T16:33:10.580Z,23.40
2018-05-03T16:35:38.549Z,24.00
2018-05-03T16:38:07.201Z,23.60
2018-05-03T16:40:35.683Z,23.60
2018-05-03T16:43:03.256Z,23.30
2018-05-03T16:45:31.259Z,22.50
2018-05-03T16:47:58.813Z,22.50
2018-05-03T16:50:26.389Z,22.20
2018-05-03T16:52:54.928Z,22.40
2018-05-03T16:55:22.887Z,22.30
2018-05-03T16:57:50.882Z,22.30
2018-05-03T17:00:18.848Z,23.00
2018-05-03T17:02:46.816Z,23.30
2018-05-03T17:05:15.668Z,23.30
2018-05-03T17:07:43.323Z,23.30
2018-05-03T17:10:10.903Z,22.90
2018-05-03T17:12:38.470Z,22.60
2018-05-03T17:15:06.070Z,22.10
2018-05-03T17:17:33.628Z,21.80
2018-05-03T17:20:01.256Z,21.80
2018-05-03T17:22:29.603Z,22.10
2018-05-03T17:24:57.168Z,21.90
2018-05-03T17:27:24.704Z,21.50
2018-05-03T17:29:53.641Z,21.10
2018-05-03T17:32:22.150Z,20.60
2018-05-03T17:34:50.175Z,20.00
2018-05-03T17:37:17.875Z,19.40
2018-05-03T17:39:46.360Z,19.00
2018-05-03T17:42:14.263Z,18.60
2018-05-03T17:44:43.710Z,18.40
2018-05-03T17:47:11.419Z,18.20
2018-05-03T17:49:38.972Z,18.20
2018-05-03T17:52:06.548Z,18.10
2018-05-03T17:54:34.184Z,18.00
2018-05-03T17:57:02.262Z,17.80
2018-05-03T17:59:29.764Z,17.80
2018-05-03T18:01:58.532Z,17.70
2018-05-03T18:04:26.100Z,17.60
2018-05-03T18:06:53.702Z,17.60
2018-05-03T18:09:21.659Z,17.50
2018-05-03T18:11:49.859Z,17.40
2018-05-03T18:14:19.490Z,17.20
2018-05-03T18:17:06.825Z,17.20
2018-05-03T18:19:34.376Z,17.10
2018-05-03T18:22:01.986Z,17.00
2018-05-03T18:24:29.556Z,16.90
2018-05-03T18:26:57.496Z,16.70
2018-05-03T18:29:28.497Z,16.70
2018-05-03T18:31:56.134Z,16.50
2018-05-03T18:34:24.118Z,16.30
2018-05-03T18:36:51.751Z,16.30
2018-05-03T18:39:19.389Z,16.20
2018-05-03T18:41:47.057Z,16.00
2018-05-03T18:44:15.568Z,15.90
2018-05-03T18:46:44.148Z,15.70
2018-05-03T18:49:13.061Z,15.60
2018-05-03T18:51:40.770Z,15.60
2018-05-03T18:54:08.338Z,15.50
2018-05-03T18:56:35.942Z,15.50
2018-05-03T18:59:04.632Z,15.40
2018-05-03T19:01:32.244Z,15.40
2018-05-03T19:03:59.904Z,15.30
2018-05-03T19:06:27.403Z,15.20
2018-05-03T19:08:55.429Z,15.00
2018-05-03T19:11:22.980Z,15.00
2018-05-03T19:13:50.632Z,14.90
2018-05-03T19:16:18.729Z,14.90
2018-05-03T19:18:46.306Z,14.80
2018-05-03T19:21:16.753Z,14.70
2018-05-03T19:23:45.418Z,14.70
2018-05-03T19:26:13.547Z,14.70
2018-05-03T19:28:41.253Z,14.60
2018-05-03T19:31:09.900Z,14.50
2018-05-03T19:33:37.519Z,14.40
2018-05-03T19:36:05.509Z,14.10
2018-05-03T19:38:33.828Z,14.10
2018-05-03T19:41:01.460Z,14.00
2018-05-03T19:43:30.264Z,13.90
2018-05-03T19:46:00.768Z,13.80
2018-05-03T19:48:32.250Z,13.80
2018-05-03T19:50:59.829Z,13.70
2018-05-03T19:53:34.305Z,13.60
2018-05-03T20:07:55.738Z,13.50
2018-05-03T20:19:14.485Z,13.20
2018-05-03T20:42:17.187Z,12.50
2018-05-03T20:47:50.771Z,12.40
2018-05-03T20:53:29.266Z,12.30
2018-05-03T20:56:01.583Z,12.20
2018-05-03T20:58:52.324Z,12.10
2018-05-03T21:01:21.136Z,12.10
2018-05-03T21:03:48.793Z,12.10
2018-05-03T21:06:22.241Z,12.10
2018-05-03T21:09:04.948Z,12.10
2018-05-03T21:11:37.002Z,12.10
2018-05-03T21:14:05.241Z,12.10
2018-05-03T21:16:34.452Z,12.00
2018-05-03T21:19:10.039Z,12.00
2018-05-03T21:21:38.528Z,12.00
2018-05-03T21:24:19.575Z,12.00
2018-05-03T21:27:01.145Z,12.00
2018-05-03T21:29:31.835Z,11.90
2018-05-03T21:32:01.268Z,11.90
2018-05-03T21:34:31.852Z,11.80
2018-05-03T21:37:00.388Z,11.80
2018-05-03T21:39:30.389Z,11.70
2018-05-03T21:42:01.401Z,11.60
2018-05-03T21:44:29.665Z,11.60
2018-05-03T21:46:57.909Z,11.60
2018-05-03T21:49:28.815Z,11.50
2018-05-03T21:51:57.570Z,11.40
2018-05-03T21:54:27.034Z,11.40
2018-05-03T21:56:55.642Z,11.30
2018-05-03T21:59:23.235Z,11.30
2018-05-03T22:01:54.194Z,11.30
2018-05-03T22:04:23.499Z,11.20
2018-05-03T22:06:52.810Z,11.20
2018-05-03T22:09:22.626Z,11.20
2018-05-03T22:11:50.368Z,11.20
2018-05-03T22:14:21.289Z,11.20
2018-05-03T22:16:49.171Z,11.20
2018-05-03T22:19:18.383Z,11.20
2018-05-03T22:21:48.419Z,11.20
2018-05-03T22:24:17.383Z,11.10
2018-05-03T22:26:45.246Z,11.10
2018-05-03T22:29:13.676Z,11.00
2018-05-03T22:31:41.661Z,11.10
2018-05-03T22:34:09.912Z,11.00
2018-05-03T22:36:38.033Z,11.00
2018-05-03T22:44:52.441Z,11.00
2018-05-03T22:47:20.809Z,11.00
2018-05-03T22:49:49.789Z,10.90
2018-05-03T22:52:18.377Z,10.90
2018-05-03T22:58:02.595Z,10.80
2018-05-03T23:00:31.186Z,10.80
2018-05-03T23:03:02.059Z,10.80
2018-05-03T23:05:31.707Z,10.80
2018-05-03T23:08:03.337Z,10.80
2018-05-03T23:10:35.233Z,10.80
2018-05-03T23:13:05.175Z,10.80
2018-05-03T23:15:35.947Z,10.80
2018-05-03T23:18:06.742Z,10.70
2018-05-03T23:20:39.554Z,10.70
2018-05-03T23:23:09.100Z,10.70
2018-05-03T23:25:41.583Z,10.70
2018-05-03T23:28:11.684Z,10.70
2018-05-03T23:30:43.616Z,10.60
2018-05-03T23:33:14.328Z,10.60
2018-05-03T23:35:44.561Z,10.60
2018-05-03T23:38:12.887Z,10.60
2018-05-03T23:40:42.915Z,10.60
2018-05-03T23:43:10.960Z,10.50
2018-05-03T23:45:40.664Z,10.50
2018-05-03T23:48:12.348Z,10.50
2018-05-03T23:50:41.887Z,10.50
2018-05-03T23:53:10.072Z,10.40
2018-05-03T23:55:42.383Z,10.40
2018-05-03T23:58:10.634Z,10.40
